createdAt,value
2019-03-15T00:00:35.503Z,78.43
2019-03-15T00:05:37.944Z,78.62
2019-03-15T00:10:40.396Z,78.60
2019-03-15T00:15:42.848Z,78.42
2019-03-15T00:20:45.297Z,78.52
2019-03-15T00:25:47.746Z,78.50
2019-03-15T00:30:50.193Z,78.28
2019-03-15T00:35:52.642Z,78.42
2019-03-15T00:40:55.085Z,78.12
2019-03-15T00:45:57.537Z,77.67
2019-03-15T00:50:59.970Z,77.45
2019-03-15T00:56:02.455Z,77.13
2019-03-15T01:01:04.896Z,76.94
2019-03-15T01:06:07.346Z,77.00
2019-03-15T01:11:09.792Z,77.07
2019-03-15T01:16:12.269Z,77.13
2019-03-15T01:21:14.724Z,77.07
2019-03-15T01:26:17.170Z,76.96
2019-03-15T01:31:19.625Z,77.10
2019-03-15T01:36:22.078Z,76.98
2019-03-15T01:41:24.581Z,76.91
2019-03-15T01:46:27.021Z,76.88
2019-03-15T01:51:29.431Z,76.77
2019-03-15T01:56:31.974Z,76.45
2019-03-15T02:01:34.342Z,76.23
2019-03-15T02:06:36.788Z,76.12
2019-03-15T02:11:39.231Z,76.16
2019-03-15T02:16:41.672Z,76.11
2019-03-15T02:21:44.244Z,76.20
2019-03-15T02:26:46.690Z,76.21
2019-03-15T02:31:49.154Z,76.13
2019-03-15T02:36:51.601Z,75.91
2019-03-15T02:41:54.060Z,75.77
2019-03-15T02:46:56.511Z,76.03
2019-03-15T02:51:58.958Z,76.03
2019-03-15T02:57:01.414Z,75.94
2019-03-15T03:02:03.874Z,75.91
2019-03-15T03:07:06.326Z,75.93
2019-03-15T03:12:08.790Z,75.96
2019-03-15T03:17:11.243Z,76.06
2019-03-15T03:22:13.686Z,76.12
2019-03-15T03:27:16.136Z,76.16
2019-03-15T03:32:18.602Z,76.11
2019-03-15T03:37:21.049Z,76.13
2019-03-15T03:42:23.516Z,76.10
2019-03-15T03:47:25.944Z,76.10
2019-03-15T03:52:28.391Z,75.94
2019-03-15T03:57:30.839Z,76.02
2019-03-15T04:02:33.811Z,75.98
2019-03-15T04:07:35.749Z,76.02
2019-03-15T04:12:38.185Z,75.86
2019-03-15T04:17:40.715Z,75.92
2019-03-15T04:22:43.164Z,75.90
2019-03-15T04:27:45.618Z,75.99
2019-03-15T04:32:48.076Z,75.84
2019-03-15T04:37:50.525Z,75.75
2019-03-15T04:42:52.972Z,75.50
2019-03-15T04:47:55.416Z,75.35
2019-03-15T04:52:57.876Z,75.38
2019-03-15T04:58:00.326Z,75.42
2019-03-15T05:03:02.793Z,75.37
2019-03-15T05:08:05.240Z,75.54
2019-03-15T05:13:07.693Z,75.28
2019-03-15T05:18:10.163Z,75.42
2019-03-15T05:23:12.603Z,75.72
2019-03-15T05:28:15.086Z,75.88
2019-03-15T05:33:17.584Z,75.95
2019-03-15T05:38:20.056Z,76.18
2019-03-15T05:43:22.511Z,76.40
2019-03-15T05:48:24.968Z,76.66
2019-03-15T05:53:27.484Z,77.10
2019-03-15T05:58:30.120Z,77.26
2019-03-15T06:03:32.396Z,77.30
2019-03-15T06:08:34.864Z,77.51
2019-03-15T06:13:37.321Z,77.65
2019-03-15T06:18:39.789Z,77.94
2019-03-15T06:23:42.264Z,78.16
2019-03-15T06:28:44.727Z,78.24
2019-03-15T06:33:47.171Z,78.32
2019-03-15T06:38:49.637Z,78.70
2019-03-15T06:43:52.111Z,78.84
2019-03-15T06:48:55.093Z,78.89
2019-03-15T06:54:10.553Z,79.18
2019-03-15T06:58:59.462Z,79.42
2019-03-15T07:04:01.950Z,79.39
2019-03-15T07:09:04.386Z,79.47
2019-03-15T07:14:06.840Z,79.47
2019-03-15T07:19:09.422Z,79.37
2019-03-15T07:24:24.118Z,79.52
2019-03-15T07:29:14.345Z,79.57
2019-03-15T07:34:16.808Z,79.56
2019-03-15T07:39:19.264Z,79.73
2019-03-15T07:44:21.730Z,79.48
2019-03-15T07:49:24.218Z,79.53
2019-03-15T07:54:37.477Z,79.59
2019-03-15T07:59:29.241Z,79.67
2019-03-15T08:04:31.694Z,79.65
2019-03-15T08:09:34.158Z,79.46
2019-03-15T08:14:36.615Z,79.59
2019-03-15T08:19:39.070Z,79.56
2019-03-15T08:24:51.028Z,79.27
2019-03-15T08:29:44.029Z,78.87
2019-03-15T08:34:46.484Z,78.74
2019-03-15T08:39:48.936Z,78.77
2019-03-15T08:44:51.391Z,78.90
2019-03-15T08:49:53.854Z,79.00
2019-03-15T08:55:05.134Z,78.75
2019-03-15T08:59:58.777Z,79.01
2019-03-15T09:05:01.235Z,79.25
2019-03-15T09:10:03.899Z,78.97
2019-03-15T09:15:06.139Z,78.43
2019-03-15T09:20:11.527Z,77.88
2019-03-15T09:25:19.229Z,77.81
2019-03-15T09:30:23.815Z,77.96
2019-03-15T09:35:18.879Z,78.22
2019-03-15T09:40:21.348Z,77.92
2019-03-15T09:45:23.788Z,77.81
2019-03-15T09:50:36.039Z,77.54
2019-03-15T09:55:33.161Z,77.81
2019-03-15T10:00:31.331Z,78.27
2019-03-15T10:05:33.775Z,78.56
2019-03-15T10:10:36.728Z,78.62
2019-03-15T10:15:39.199Z,78.93
2019-03-15T10:20:41.645Z,78.87
2019-03-15T10:25:47.532Z,79.21
2019-03-15T10:30:46.578Z,79.30
2019-03-15T10:35:49.098Z,79.61
2019-03-15T10:40:51.510Z,79.75
2019-03-15T10:45:53.957Z,79.76
2019-03-15T10:50:56.407Z,79.47
2019-03-15T10:56:00.469Z,79.35
2019-03-15T11:01:01.318Z,79.59
2019-03-15T11:06:03.776Z,79.19
2019-03-15T11:11:06.255Z,79.47
2019-03-15T11:16:08.713Z,79.50
2019-03-15T11:21:11.170Z,79.66
2019-03-15T11:26:14.235Z,79.90
2019-03-15T11:31:16.978Z,80.11
2019-03-15T11:36:19.423Z,80.24
2019-03-15T11:41:21.875Z,80.30
2019-03-15T11:46:24.391Z,80.53
2019-03-15T11:51:26.848Z,80.39
2019-03-15T11:56:29.312Z,80.46
2019-03-15T12:01:31.775Z,80.44
2019-03-15T12:06:34.241Z,80.98
2019-03-15T12:11:36.704Z,80.92
2019-03-15T12:16:39.169Z,80.37
2019-03-15T12:21:41.634Z,80.92
2019-03-15T12:26:44.083Z,81.19
2019-03-15T12:31:46.577Z,81.34
2019-03-15T12:36:49.058Z,81.11
2019-03-15T12:41:51.548Z,81.21
2019-03-15T12:46:54.033Z,81.76
2019-03-15T12:51:56.503Z,81.73
2019-03-15T12:56:58.963Z,81.63
2019-03-15T13:02:01.401Z,81.29
2019-03-15T13:07:03.960Z,81.11
2019-03-15T13:12:06.359Z,81.20
2019-03-15T13:17:08.832Z,81.17
2019-03-15T13:22:11.277Z,81.00
2019-03-15T13:27:13.745Z,80.62
2019-03-15T13:32:16.226Z,81.03
2019-03-15T13:37:18.681Z,80.88
2019-03-15T13:42:21.142Z,80.82
2019-03-15T13:47:23.596Z,80.61
2019-03-15T13:52:26.131Z,80.77
2019-03-15T13:57:28.525Z,80.57
2019-03-15T14:02:30.983Z,80.71
2019-03-15T14:07:33.433Z,80.74
2019-03-15T14:12:35.887Z,80.89
2019-03-15T14:17:38.344Z,80.77
2019-03-15T14:22:40.869Z,80.65
2019-03-15T14:27:43.263Z,80.69
2019-03-15T14:32:45.701Z,80.75
2019-03-15T14:37:48.175Z,81.02
2019-03-15T14:42:50.876Z,80.48
2019-03-15T14:47:53.186Z,81.02
2019-03-15T14:52:55.692Z,81.05
2019-03-15T14:58:00.185Z,81.45
2019-03-15T15:03:00.703Z,81.65
2019-03-15T15:08:03.172Z,81.72
2019-03-15T15:13:05.649Z,81.97
2019-03-15T15:18:08.083Z,81.89
2019-03-15T15:23:10.557Z,82.11
2019-03-15T15:28:13.030Z,82.18
2019-03-15T15:33:15.504Z,82.69
2019-03-15T15:38:17.982Z,82.56
2019-03-15T15:43:20.448Z,82.78
2019-03-15T15:48:22.944Z,83.13
2019-03-15T15:53:25.394Z,83.40
2019-03-15T15:58:27.825Z,83.54
2019-03-15T16:03:30.302Z,83.67
2019-03-15T16:08:32.784Z,83.73
2019-03-15T16:13:35.225Z,84.07
2019-03-15T16:18:37.832Z,84.14
2019-03-15T16:23:40.204Z,84.14
2019-03-15T16:28:42.651Z,84.34
2019-03-15T16:33:45.115Z,84.50
2019-03-15T16:38:47.591Z,84.56
2019-03-15T16:43:50.062Z,84.67
2019-03-15T16:48:52.535Z,84.90
2019-03-15T16:53:55.028Z,85.03
2019-03-15T16:58:57.478Z,85.15
2019-03-15T17:03:59.940Z,85.18
2019-03-15T17:09:02.516Z,85.29
2019-03-15T17:14:05.006Z,85.38
2019-03-15T17:19:07.442Z,85.60
2019-03-15T17:24:09.892Z,85.71
2019-03-15T17:29:12.353Z,85.77
2019-03-15T17:34:14.808Z,85.93
2019-03-15T17:39:17.273Z,85.97
2019-03-15T17:44:19.735Z,86.27
2019-03-15T17:49:22.199Z,86.35
2019-03-15T17:54:24.648Z,86.47
2019-03-15T17:59:27.133Z,86.53
2019-03-15T18:04:29.613Z,86.65
2019-03-15T18:09:32.077Z,86.69
2019-03-15T18:14:34.534Z,86.78
2019-03-15T18:19:36.989Z,86.81
2019-03-15T18:24:39.443Z,86.96
2019-03-15T18:29:41.914Z,87.09
2019-03-15T18:34:44.397Z,87.10
2019-03-15T18:39:46.890Z,87.17
2019-03-15T18:44:49.361Z,87.21
2019-03-15T18:49:51.825Z,87.22
2019-03-15T18:54:54.280Z,87.20
2019-03-15T18:59:56.755Z,87.44
2019-03-15T19:04:59.205Z,87.42
2019-03-15T19:10:01.680Z,87.46
2019-03-15T19:15:04.145Z,87.46
2019-03-15T19:20:06.631Z,87.39
2019-03-15T19:25:09.195Z,87.52
2019-03-15T19:30:14.633Z,87.36
2019-03-15T19:35:17.112Z,87.61
2019-03-15T19:40:19.580Z,87.68
2019-03-15T19:45:22.056Z,87.64
2019-03-15T19:50:24.514Z,87.66
2019-03-15T19:55:26.979Z,87.75
2019-03-15T20:00:29.449Z,87.77
2019-03-15T20:05:31.912Z,87.74
2019-03-15T20:10:34.396Z,87.67
2019-03-15T20:15:36.871Z,87.75
2019-03-15T20:20:39.386Z,87.64
2019-03-15T20:25:41.886Z,87.60
2019-03-15T20:30:51.763Z,87.56
2019-03-15T20:35:46.862Z,87.49
2019-03-15T20:40:49.327Z,87.47
2019-03-15T20:45:51.827Z,87.41
2019-03-15T20:50:54.305Z,87.30
2019-03-15T20:55:56.827Z,87.27
2019-03-15T21:00:59.510Z,87.31
2019-03-15T21:06:02.222Z,87.19
2019-03-15T21:11:04.689Z,87.10
2019-03-15T21:16:07.152Z,87.12
2019-03-15T21:21:09.612Z,87.03
2019-03-15T21:26:12.221Z,86.95
2019-03-15T21:31:14.693Z,86.70
2019-03-15T21:36:17.169Z,86.61
2019-03-15T21:41:19.633Z,86.41
2019-03-15T21:46:22.097Z,86.37
2019-03-15T21:51:24.601Z,86.33
2019-03-15T21:56:27.085Z,86.39
2019-03-15T22:01:29.649Z,86.33
2019-03-15T22:06:32.045Z,86.22
2019-03-15T22:11:34.505Z,86.21
2019-03-15T22:16:36.991Z,86.34
2019-03-15T22:21:39.463Z,86.32
2019-03-15T22:26:41.944Z,86.44
2019-03-15T22:31:44.461Z,86.49
2019-03-15T22:36:46.948Z,86.52
2019-03-15T22:41:49.406Z,86.59
2019-03-15T22:46:51.872Z,86.65
2019-03-15T22:51:54.345Z,86.68
2019-03-15T22:56:56.840Z,86.66
2019-03-15T23:01:59.363Z,86.68
2019-03-15T23:07:01.839Z,86.72
2019-03-15T23:12:04.301Z,86.82
2019-03-15T23:17:06.780Z,86.91
2019-03-15T23:22:09.244Z,86.93
2019-03-15T23:27:11.724Z,86.91
2019-03-15T23:32:14.192Z,86.91
2019-03-15T23:37:16.661Z,86.94
2019-03-15T23:42:19.401Z,86.95
2019-03-15T23:47:21.842Z,87.03
2019-03-15T23:52:24.313Z,87.16
2019-03-15T23:57:26.797Z,87.33
